createdAt,value
2018-03-06T05:27:05.386Z,999.07
2018-03-06T05:28:05.230Z,999.04
2018-03-06T05:29:58.503Z,999.09
2018-03-06T05:30:58.531Z,999.08
2018-03-06T07:45:25.020Z,998.84
2018-03-06T07:46:25.679Z,998.85
2018-03-06T07:47:46.710Z,998.87
2018-03-06T07:48:39.536Z,998.87
2018-03-06T09:16:35.306Z,998.60
2018-03-06T09:17:36.239Z,998.56
2018-03-06T09:19:27.438Z,998.63
2018-03-06T09:21:27.515Z,998.61
2018-03-06T09:22:27.336Z,998.63
2018-03-06T09:23:27.469Z,998.67
2018-03-06T09:24:27.513Z,998.63
2018-03-06T09:25:27.298Z,998.70
2018-03-06T09:26:27.550Z,998.72
2018-03-06T09:27:28.861Z,998.70
2018-03-06T09:28:31.980Z,998.68
2018-03-06T09:29:28.448Z,998.63
2018-03-06T09:30:27.359Z,998.67
2018-03-06T09:32:29.684Z,998.67
2018-03-06T09:33:27.985Z,998.67
2018-03-06T09:34:28.439Z,998.65
2018-03-06T09:35:27.419Z,998.72
2018-03-06T09:36:27.048Z,998.64
2018-03-06T09:37:27.243Z,998.66
2018-03-06T09:38:27.319Z,998.69
2018-03-06T09:39:29.262Z,998.71
2018-03-06T09:40:27.151Z,998.63
2018-03-06T09:41:28.062Z,998.69
2018-03-06T09:42:32.174Z,998.70
2018-03-06T09:43:27.211Z,998.64
2018-03-06T09:44:27.258Z,998.66
2018-03-06T09:45:27.658Z,998.66
2018-03-06T09:46:27.165Z,998.67
2018-03-06T09:47:30.594Z,998.63
2018-03-06T09:48:30.053Z,998.64
2018-03-06T09:49:28.132Z,998.63
2018-03-06T09:50:27.608Z,998.67
2018-03-06T09:51:27.137Z,998.66
2018-03-06T09:52:27.123Z,998.68
2018-03-06T09:53:28.614Z,998.67
2018-03-06T09:54:27.078Z,998.61
2018-03-06T09:55:27.040Z,998.67
2018-03-06T09:56:26.964Z,998.69
2018-03-06T09:57:27.081Z,998.67
2018-03-06T09:58:30.332Z,998.69
2018-03-06T10:00:26.812Z,998.64
2018-03-06T10:01:26.864Z,998.62
2018-03-06T10:03:27.464Z,998.67
2018-03-06T10:04:27.052Z,998.73
2018-03-06T10:05:26.954Z,998.67
2018-03-06T10:06:28.329Z,998.52
2018-03-06T10:08:27.932Z,998.59
2018-03-06T10:13:09.558Z,998.59
2018-03-06T10:13:57.306Z,998.58
2018-03-06T10:16:58.848Z,998.68
2018-03-06T11:30:47.140Z,998.05
2018-03-06T11:33:05.611Z,998.07
2018-03-06T11:33:39.049Z,998.05
2018-03-06T11:34:39.035Z,998.05
2018-03-06T11:35:39.099Z,998.05
2018-03-06T11:38:06.225Z,998.07
2018-03-06T11:38:42.727Z,998.03
2018-03-06T11:40:38.988Z,998.07
2018-03-06T11:41:38.898Z,998.10
2018-03-06T11:42:41.876Z,998.05
2018-03-06T11:43:48.861Z,998.11
2018-03-06T11:44:38.866Z,998.09
2018-03-06T11:45:38.806Z,998.08
2018-03-06T11:46:38.808Z,998.08
2018-03-06T11:47:42.348Z,998.05
2018-03-06T11:49:08.307Z,998.08
2018-03-06T11:57:53.633Z,998.09
2018-03-06T12:00:03.914Z,998.11
2018-03-06T12:01:03.662Z,998.02
2018-03-06T12:03:20.416Z,998.06
2018-03-06T12:05:12.426Z,997.98
2018-03-06T12:08:04.272Z,998.03
2018-03-06T12:09:04.135Z,998.06
2018-03-06T12:10:57.473Z,998.05
2018-03-06T12:11:57.178Z,998.09
2018-03-06T12:12:57.356Z,998.12
2018-03-06T12:15:01.056Z,998.08
2018-03-06T12:16:00.746Z,998.06
2018-03-06T12:16:57.967Z,998.03
2018-03-06T12:17:58.022Z,998.03
2018-03-06T12:18:57.459Z,998.09
2018-03-06T12:19:57.362Z,998.05
2018-03-06T12:23:57.398Z,998.08
2018-03-06T12:24:57.360Z,998.07
2018-03-06T12:28:57.386Z,998.12
2018-03-06T12:30:58.957Z,998.14
2018-03-06T12:32:57.312Z,998.06
2018-03-06T12:34:57.305Z,998.07
2018-03-06T12:35:58.331Z,998.11
2018-03-06T12:36:57.157Z,998.11
2018-03-06T12:38:58.124Z,998.12
2018-03-06T12:39:58.072Z,998.07
2018-03-06T12:40:57.396Z,998.05
2018-03-06T12:42:57.056Z,998.04
2018-03-06T12:43:57.321Z,998.10
2018-03-06T12:45:56.981Z,998.05
2018-03-06T12:47:56.874Z,998.04
2018-03-06T12:48:57.631Z,998.01
2018-03-06T12:49:57.070Z,998.03
2018-03-06T12:51:56.958Z,998.00
2018-03-06T12:52:57.261Z,997.98
2018-03-06T12:55:56.983Z,997.96
2018-03-06T12:57:56.862Z,997.97
2018-03-06T12:58:56.844Z,998.03
2018-03-06T12:59:56.820Z,997.94
2018-03-06T13:00:56.758Z,997.98
2018-03-06T13:01:56.821Z,997.93
2018-03-06T13:02:56.662Z,997.95
2018-03-06T13:03:56.821Z,997.95
2018-03-06T13:04:56.704Z,997.90
2018-03-06T13:05:56.834Z,997.92
2018-03-06T13:07:56.744Z,997.92
2018-03-06T13:09:56.351Z,997.93
2018-03-06T13:10:56.360Z,997.87
2018-03-06T13:11:56.610Z,997.87
2018-03-06T13:14:28.323Z,997.78
2018-03-06T13:15:29.883Z,997.83
2018-03-06T13:17:03.286Z,997.84
2018-03-06T13:18:02.705Z,997.91
